Time;durP1;ratioP1;P1;durP2;ratioP2;P2;SDS_P1;SDS_P2;PMS_P1;PMS_P2;Temp;Humidity;BMP_temperature;BMP_pressure;BME280_temperature;BME280_humidity;BME280_pressure;Samples;Min_cycle;Max_cycle;Signal;HPM_P1;HPM_P2
2021/12/10 00:00:47;;;;;;;4.03;0.55;;;;;;;6.49;100.00;98247.78;5084519;28;20073;-47
2021/12/10 00:03:19;;;;;;;0.35;0.35;;;;;;;6.43;100.00;98253.94;5086047;28;20036;-44
2021/12/10 00:05:52;;;;;;;1.15;1.05;;;;;;;6.48;100.00;98255.88;5085545;28;20028;-47
2021/12/10 00:08:19;;;;;;;0.60;0.30;;;;;;;6.48;100.00;98250.63;5086653;28;20726;-49
2021/12/10 00:10:49;;;;;;;2.47;0.40;;;;;;;6.46;100.00;98252.69;5084611;28;20070;-47
2021/12/10 00:13:15;;;;;;;0.30;0.30;;;;;;;6.42;100.00;98249.66;5084406;28;20055;-48
2021/12/10 00:15:42;;;;;;;1.52;0.30;;;;;;;6.35;100.00;98256.84;5085029;28;20108;-48
2021/12/10 00:18:10;;;;;;;0.82;0.43;;;;;;;6.33;100.00;98254.44;5084233;28;20097;-47
2021/12/10 00:20:38;;;;;;;0.85;0.40;;;;;;;6.28;100.00;98262.16;5085431;28;20032;-45
2021/12/10 00:23:11;;;;;;;1.00;0.70;;;;;;;6.27;100.00;98265.00;5082675;28;20123;-53
2021/12/10 00:25:44;;;;;;;1.10;0.38;;;;;;;6.24;100.00;98270.72;5084676;28;20028;-46
2021/12/10 00:28:19;;;;;;;1.52;0.10;;;;;;;6.18;100.00;98272.38;5084750;28;20102;-47
2021/12/10 00:31:05;;;;;;;4.80;0.40;;;;;;;6.15;100.00;98275.44;5081304;28;20496;-49
2021/12/10 00:33:37;;;;;;;0.32;0.10;;;;;;;6.14;100.00;98275.66;5082792;28;20035;-48
2021/12/10 00:36:03;;;;;;;;;;;;;;;6.11;100.00;98279.53;5085456;28;20111;-49
2021/12/10 00:38:28;;;;;;;1.13;0.50;;;;;;;6.08;100.00;98283.41;5084692;28;20010;-48
2021/12/10 00:40:54;;;;;;;0.60;0.38;;;;;;;6.06;100.00;98284.63;5084049;28;20032;-50
2021/12/10 00:43:20;;;;;;;0.40;0.30;;;;;;;6.01;100.00;98287.09;5084824;28;20036;-45
2021/12/10 00:45:45;;;;;;;0.40;0.40;;;;;;;5.98;100.00;98295.41;5085513;28;20024;-45
2021/12/10 00:48:11;;;;;;;0.20;0.20;;;;;;;5.93;100.00;98284.72;5084606;28;20122;-46
2021/12/10 00:50:43;;;;;;;2.30;0.38;;;;;;;5.86;100.00;98293.47;5084404;28;20021;-45
2021/12/10 00:53:09;;;;;;;1.95;0.22;;;;;;;5.79;100.00;98290.06;5084480;28;20032;-49
2021/12/10 00:55:35;;;;;;;0.30;0.30;;;;;;;5.75;100.00;98286.25;5084364;28;20043;-44
2021/12/10 00:58:01;;;;;;;1.65;0.93;;;;;;;5.75;100.00;98288.88;5082166;28;20538;-45
2021/12/10 01:00:32;;;;;;;2.63;0.30;;;;;;;5.75;100.00;98296.75;5083353;28;20032;-47
2021/12/10 01:02:58;;;;;;;6.57;1.13;;;;;;;5.75;100.00;98296.75;5085210;28;20047;-50
2021/12/10 01:05:24;;;;;;;1.13;0.28;;;;;;;5.75;100.00;98293.34;5084405;28;20064;-47
2021/12/10 01:07:51;;;;;;;3.20;0.30;;;;;;;5.75;100.00;98296.75;5080446;28;20032;-48
2021/12/10 01:10:23;;;;;;;0.63;0.00;;;;;;;5.73;100.00;98300.63;5084643;28;20492;-49
2021/12/10 01:12:52;;;;;;;2.42;1.65;;;;;;;5.71;100.00;98287.72;5082766;28;20036;-46
2021/12/10 01:28:56;;;;;;;3.20;0.43;;;;;;;5.69;100.00;98316.03;5087803;28;20064;-46
2021/12/10 01:31:21;;;;;;;0.80;0.80;;;;;;;5.67;100.00;98312.81;5088646;28;20147;-47
2021/12/10 01:33:48;;;;;;;2.30;1.05;;;;;;;5.66;100.00;98322.53;5086858;28;20114;-51
2021/12/10 01:36:14;;;;;;;3.00;0.38;;;;;;;5.65;100.00;98320.09;5086110;28;20043;-49
2021/12/10 01:38:42;;;;;;;1.05;0.15;;;;;;;5.63;100.00;98320.31;5082762;28;20024;-48
2021/12/10 01:41:11;;;;;;;1.45;1.08;;;;;;;5.65;100.00;98317.47;5088001;28;20082;-48
2021/12/10 01:43:39;;;;;;;2.05;0.20;;;;;;;5.65;100.00;98326.19;5080616;28;20056;-45
2021/12/10 01:46:18;;;;;;;1.10;0.50;;;;;;;5.64;100.00;98335.06;5087986;28;20079;-47
2021/12/10 01:48:51;;;;;;;4.68;0.10;;;;;;;5.60;100.00;98340.94;5078345;28;20057;-48
2021/12/10 01:51:20;;;;;;;0.10;0.00;;;;;;;5.56;100.00;98343.22;5087572;28;20393;-45
2021/12/10 01:53:49;;;;;;;0.50;0.03;;;;;;;5.56;100.00;98352.91;5087540;28;20043;-46
2021/12/10 01:56:19;;;;;;;0.15;0.10;;;;;;;5.52;100.00;98346.47;5085702;28;20110;-46
2021/12/10 01:58:46;;;;;;;0.22;0.13;;;;;;;5.49;100.00;98358.19;5087460;28;20023;-45
2021/12/10 02:01:16;;;;;;;0.32;0.32;;;;;;;5.46;100.00;98348.91;5087018;28;20103;-47
2021/12/10 02:03:42;;;;;;;1.95;1.08;;;;;;;5.45;100.00;98373.59;5086968;28;20027;-50
2021/12/10 02:06:08;;;;;;;1.80;0.22;;;;;;;5.40;100.00;98373.41;5080794;28;20035;-48
2021/12/10 02:08:35;;;;;;;7.63;0.32;;;;;;;5.36;100.00;98384.53;5090887;28;20027;-49
2021/12/10 02:11:02;;;;;;;9.45;0.30;;;;;;;5.31;100.00;98374.66;5075556;28;20436;-46
2021/12/10 02:13:28;;;;;;;1.83;0.08;;;;;;;5.29;100.00;98384.56;5088011;28;20028;-48
2021/12/10 02:15:54;;;;;;;7.40;0.85;;;;;;;5.25;100.00;98399.13;5085949;28;20040;-48
2021/12/10 02:18:21;;;;;;;1.08;0.88;;;;;;;5.21;100.00;98384.78;5084540;28;20032;-49
2021/12/10 02:20:53;;;;;;;2.92;1.10;;;;;;;5.18;100.00;98393.91;5082250;28;20063;-45
2021/12/10 02:23:21;;;;;;;1.10;0.13;;;;;;;5.17;100.00;98396.75;5080588;28;20031;-46
2021/12/10 02:25:48;;;;;;;1.27;0.20;;;;;;;5.13;100.00;98385.03;5084333;28;20020;-46
2021/12/10 02:28:14;;;;;;;1.75;0.63;;;;;;;5.10;100.00;98390.69;5087660;28;20484;-45
2021/12/10 02:30:41;;;;;;;1.33;0.25;;;;;;;5.10;100.00;98391.50;5086218;28;20450;-52
2021/12/10 02:33:07;;;;;;;3.70;0.10;;;;;;;5.10;100.00;98393.31;5085932;28;20028;-49
2021/12/10 02:35:33;;;;;;;1.85;0.40;;;;;;;5.07;100.00;98405.06;5086884;28;20097;-48
2021/12/10 02:37:59;;;;;;;1.17;0.40;;;;;;;5.05;100.00;98404.44;5085839;28;20047;-47
2021/12/10 02:40:26;;;;;;;7.60;0.10;;;;;;;5.06;100.00;98410.50;5086410;28;20024;-46
2021/12/10 02:42:54;;;;;;;2.90;0.60;;;;;;;5.08;100.00;98413.72;5078786;28;20135;-51
2021/12/10 02:45:23;;;;;;;3.47;0.77;;;;;;;5.07;100.00;98425.25;5084044;28;20035;-47
2021/12/10 02:47:49;;;;;;;7.03;3.08;;;;;;;5.09;100.00;98413.53;5085785;28;20047;-45
2021/12/10 02:50:19;;;;;;;6.75;0.85;;;;;;;5.08;100.00;98413.72;5084413;28;20712;-48
2021/12/10 02:52:45;;;;;;;4.13;0.45;;;;;;;5.05;100.00;98437.78;5087607;28;20451;-46
2021/12/10 02:55:15;;;;;;;4.97;0.52;;;;;;;5.02;100.00;98431.94;5088304;28;20033;-49
2021/12/10 02:57:41;;;;;;;8.57;0.20;;;;;;;5.03;100.00;98425.69;5086646;28;20028;-48
2021/12/10 03:00:11;;;;;;;3.30;0.43;;;;;;;5.02;100.00;98424.03;5086167;28;20141;-47
2021/12/10 03:02:36;;;;;;;4.07;0.52;;;;;;;4.99;100.00;98434.97;5085601;28;20036;-47
2021/12/10 03:05:05;;;;;;;3.88;0.68;;;;;;;4.95;100.00;98441.63;5085551;28;20093;-49
2021/12/10 03:07:31;;;;;;;2.40;0.10;;;;;;;4.92;100.00;98460.44;5086361;28;20208;-45
2021/12/10 03:09:57;;;;;;;11.15;1.75;;;;;;;4.95;100.00;98454.75;5085665;28;20114;-54
2021/12/10 03:12:22;;;;;;;3.28;0.50;;;;;;;4.95;100.00;98457.38;5078161;28;20028;-45
2021/12/10 03:14:51;;;;;;;3.30;0.20;;;;;;;4.96;100.00;98464.28;5084178;28;20489;-47
2021/12/10 03:17:21;;;;;;;3.85;0.80;;;;;;;4.92;100.00;98468.31;5078597;28;20485;-47
2021/12/10 03:19:47;;;;;;;2.25;0.65;;;;;;;4.91;100.00;98471.16;5083793;28;20146;-47
2021/12/10 03:22:12;;;;;;;3.55;1.25;;;;;;;4.92;100.00;98468.31;5066463;28;20111;-45
2021/12/10 03:24:38;;;;;;;3.30;0.32;;;;;;;4.90;100.00;98465.06;5086294;28;20028;-48
2021/12/10 03:27:06;;;;;;;6.63;1.58;;;;;;;4.84;100.00;98465.88;5085942;28;20546;-48
2021/12/10 03:29:33;;;;;;;3.90;0.30;;;;;;;4.81;100.00;98487.31;5079866;28;20042;-48
2021/12/10 03:32:03;;;;;;;1.42;0.25;;;;;;;4.82;100.00;98470.53;5085665;28;20071;-52
2021/12/10 03:34:29;;;;;;;13.50;1.80;;;;;;;4.77;100.00;98476.38;5085102;28;20545;-47
2021/12/10 03:36:55;;;;;;;3.92;0.50;;;;;;;4.72;100.00;98499.00;5086296;28;20114;-50
2021/12/10 03:39:27;;;;;;;6.35;1.52;;;;;;;4.75;100.00;98498.59;5086144;28;20107;-55
2021/12/10 03:41:53;;;;;;;;;;;;;;;4.72;100.00;98499.00;5082062;28;20032;-47
2021/12/10 03:44:19;;;;;;;5.38;1.48;;;;;;;4.67;100.00;98498.81;5085638;28;19926;-50
2021/12/10 03:46:45;;;;;;;6.53;0.32;;;;;;;4.64;100.00;98501.84;5067107;28;20036;-54
2021/12/10 03:49:11;;;;;;;3.85;0.65;;;;;;;4.62;100.00;98494.19;5084888;28;20043;-48
2021/12/10 03:51:38;;;;;;;4.55;0.40;;;;;;;4.55;100.00;98517.78;5085175;28;20500;-47
2021/12/10 03:54:06;;;;;;;3.30;0.95;;;;;;;4.51;100.00;98516.56;5086017;28;20113;-53
2021/12/10 03:56:33;;;;;;;7.40;0.35;;;;;;;4.51;100.00;98513.94;5085414;28;20024;-46
2021/12/10 03:59:03;;;;;;;11.98;0.65;;;;;;;4.50;100.00;98514.94;5090501;28;20115;-47
2021/12/10 04:01:32;;;;;;;8.75;0.70;;;;;;;4.42;100.00;98520.38;5075477;28;20034;-46
2021/12/10 04:04:00;;;;;;;3.40;0.38;;;;;;;4.36;100.00;98522.00;5085527;28;20485;-50
2021/12/10 04:06:26;;;;;;;2.88;0.63;;;;;;;4.29;100.00;98531.66;5085238;28;20032;-47
2021/12/10 04:08:52;;;;;;;4.97;2.15;;;;;;;4.32;100.00;98538.31;5084833;28;20039;-55
2021/12/10 04:11:20;;;;;;;3.45;1.80;;;;;;;4.29;100.00;98542.16;5084906;28;20527;-45
2021/12/10 04:13:48;;;;;;;4.40;0.38;;;;;;;4.26;100.00;98541.72;5085227;28;20082;-49
2021/12/10 04:16:14;;;;;;;3.70;0.60;;;;;;;4.24;100.00;98538.50;5083482;28;20040;-50
2021/12/10 04:18:40;;;;;;;5.60;1.25;;;;;;;4.25;100.00;98545.38;5085218;28;20036;-49
2021/12/10 04:21:08;;;;;;;11.45;1.92;;;;;;;4.24;100.00;98549.00;5066979;28;20465;-46
2021/12/10 04:23:34;;;;;;;2.40;0.38;;;;;;;4.25;100.00;98546.16;5082970;28;20480;-45
2021/12/10 04:26:00;;;;;;;10.00;2.47;;;;;;;4.16;100.00;98557.84;5084503;28;20035;-47
2021/12/10 04:28:25;;;;;;;5.75;0.65;;;;;;;4.07;100.00;98562.44;5085265;28;20028;-49
2021/12/10 04:30:52;;;;;;;5.15;0.50;;;;;;;4.08;100.00;98555.38;5079049;28;20040;-47
2021/12/10 04:33:23;;;;;;;5.25;3.47;;;;;;;4.04;100.00;98560.22;5085434;28;20070;-51
2021/12/10 04:35:51;;;;;;;2.55;0.35;;;;;;;4.09;100.00;98570.13;5084625;28;20492;-53
2021/12/10 04:38:18;;;;;;;1.92;0.35;;;;;;;4.13;100.00;98579.22;5084674;28;20165;-47
2021/12/10 04:40:47;;;;;;;4.38;1.40;;;;;;;4.13;100.00;98566.94;5084464;28;20034;-51
2021/12/10 04:43:14;;;;;;;7.57;0.22;;;;;;;4.02;100.00;98564.84;5084626;28;20452;-52
2021/12/10 04:45:39;;;;;;;3.10;0.30;;;;;;;3.93;100.00;98573.91;5084088;28;20544;-47
2021/12/10 04:48:05;;;;;;;4.10;0.50;;;;;;;3.93;100.00;98579.94;5065819;28;20054;-50
2021/12/10 04:50:30;;;;;;;1.35;0.32;;;;;;;3.91;100.00;98586.38;5079358;28;20039;-51
2021/12/10 04:52:58;;;;;;;3.70;0.20;;;;;;;3.87;100.00;98587.75;5072775;28;20024;-48
2021/12/10 04:55:23;;;;;;;4.03;0.85;;;;;;;3.80;100.00;98581.69;5084992;28;20036;-48
2021/12/10 04:57:49;;;;;;;4.13;0.90;;;;;;;3.76;100.00;98599.63;5084690;28;20408;-49
2021/12/10 05:00:24;;;;;;;6.60;2.72;;;;;;;3.66;100.00;98601.75;5080575;28;20785;-53
2021/12/10 05:02:50;;;;;;;1.67;0.35;;;;;;;3.59;100.00;98608.75;5086320;28;20517;-51
2021/12/10 05:05:16;;;;;;;3.15;0.80;;;;;;;3.55;100.00;98618.84;5088880;28;20059;-48
2021/12/10 05:07:41;;;;;;;3.03;0.30;;;;;;;3.54;100.00;98619.84;5088144;28;20443;-50
2021/12/10 05:10:10;;;;;;;8.57;0.55;;;;;;;3.57;100.00;98629.94;5087033;28;20043;-54
2021/12/10 05:12:36;;;;;;;1.85;0.40;;;;;;;3.52;100.00;98631.53;5087409;28;20099;-50
2021/12/10 05:15:06;;;;;;;3.72;0.75;;;;;;;3.48;100.00;98620.59;5088181;28;20035;-51
2021/12/10 05:17:34;;;;;;;5.00;0.52;;;;;;;3.52;100.00;98628.91;5087668;28;20034;-46
2021/12/10 05:20:01;;;;;;;2.42;0.17;;;;;;;3.52;100.00;98628.91;5085858;28;20028;-50
2021/12/10 05:22:27;;;;;;;30.25;2.67;;;;;;;3.50;100.00;98627.25;5087227;28;20496;-50
2021/12/10 05:24:53;;;;;;;2.88;0.45;;;;;;;3.42;100.00;98635.25;5087143;28;20116;-49
2021/12/10 05:27:18;;;;;;;0.47;0.38;;;;;;;3.32;100.00;98633.97;5088188;28;20065;-47
2021/12/10 05:29:43;;;;;;;2.70;0.10;;;;;;;3.41;100.00;98625.81;5088548;28;20039;-47
2021/12/10 05:32:11;;;;;;;12.13;2.72;;;;;;;3.34;100.00;98637.22;5088805;28;20393;-48
2021/12/10 05:34:40;;;;;;;1.27;0.43;;;;;;;3.25;100.00;98645.22;5087632;28;20028;-52
2021/12/10 05:37:06;;;;;;;12.98;1.67;;;;;;;3.31;100.00;98642.84;5087840;28;20062;-51
2021/12/10 05:39:32;;;;;;;3.47;0.25;;;;;;;3.17;100.00;98652.38;5087698;28;20495;-49
2021/12/10 05:41:57;;;;;;;1.20;0.43;;;;;;;3.09;100.00;98655.94;5092941;28;20027;-48
2021/12/10 05:44:22;;;;;;;15.80;0.90;;;;;;;3.11;100.00;98658.38;5089189;28;20541;-50
2021/12/10 05:46:48;;;;;;;8.88;0.77;;;;;;;3.05;100.00;98665.19;5085198;28;20082;-50
2021/12/10 05:49:13;;;;;;;3.45;0.00;;;;;;;3.06;100.00;98666.78;5078508;28;20525;-49
2021/12/10 05:51:39;;;;;;;3.22;0.40;;;;;;;2.97;100.00;98678.38;5084066;28;20032;-49
2021/12/10 05:54:05;;;;;;;3.38;0.30;;;;;;;2.98;100.00;98685.25;5081760;28;20032;-50
2021/12/10 05:56:31;;;;;;;3.47;0.17;;;;;;;2.98;100.00;98680.00;5085542;28;20031;-47
2021/12/10 05:58:57;;;;;;;4.32;0.35;;;;;;;2.99;100.00;98687.66;5084925;28;20035;-48
2021/12/10 06:01:24;;;;;;;0.10;0.10;;;;;;;2.99;100.00;98689.47;5082979;28;20644;-49
2021/12/10 06:03:53;;;;;;;5.88;1.02;;;;;;;3.02;100.00;98691.72;5081646;28;20037;-49
2021/12/10 06:06:21;;;;;;;5.47;0.47;;;;;;;2.95;100.00;98698.72;5082315;28;20231;-50
2021/12/10 06:08:47;;;;;;;1.92;0.10;;;;;;;2.93;100.00;98705.94;5082619;28;20057;-47
2021/12/10 06:11:13;;;;;;;2.50;0.10;;;;;;;2.97;100.00;98699.31;5056044;28;20082;-48
2021/12/10 06:13:38;;;;;;;4.15;0.50;;;;;;;2.88;100.00;98718.75;5077189;28;20029;-51
2021/12/10 06:16:04;;;;;;;7.45;0.10;;;;;;;2.86;100.00;98720.75;5081550;28;20024;-50
2021/12/10 06:18:30;;;;;;;2.92;0.28;;;;;;;2.72;100.00;98722.41;5080268;28;20405;-52
2021/12/10 06:20:55;;;;;;;9.57;0.50;;;;;;;2.76;100.00;98724.47;5084541;28;20038;-50
2021/12/10 06:23:22;;;;;;;1.73;0.63;;;;;;;2.78;100.00;98732.13;5083193;28;20124;-51
2021/12/10 06:25:48;;;;;;;2.50;0.60;;;;;;;2.74;100.00;98733.50;5056762;28;20029;-51
2021/12/10 06:28:13;;;;;;;0.47;0.10;;;;;;;2.69;100.00;98743.72;5081989;28;20028;-48
2021/12/10 06:30:43;;;;;;;3.88;0.10;;;;;;;2.59;100.00;98752.66;5082968;28;20482;-51
2021/12/10 06:33:12;;;;;;;1.60;0.30;;;;;;;2.61;100.00;98757.72;5078008;28;20036;-50
2021/12/10 06:35:40;;;;;;;3.45;0.35;;;;;;;2.61;100.00;98760.31;5083023;28;20024;-52
2021/12/10 06:38:07;;;;;;;19.42;2.05;;;;;;;2.60;100.00;98766.53;5081575;28;20062;-47
2021/12/10 06:40:35;;;;;;;2.38;0.32;;;;;;;2.56;100.00;98770.53;5084928;28;20608;-50
2021/12/10 06:43:01;;;;;;;3.72;0.50;;;;;;;2.47;100.00;98780.25;5061841;28;20065;-49
2021/12/10 06:45:28;;;;;;;0.52;0.00;;;;;;;2.36;100.00;98797.22;5081100;28;20103;-52
2021/12/10 06:48:01;;;;;;;4.70;0.30;;;;;;;2.34;100.00;98791.34;5079228;28;20136;-52
2021/12/10 06:50:31;;;;;;;6.47;0.40;;;;;;;2.39;100.00;98801.28;5085784;28;20031;-50
2021/12/10 06:52:57;;;;;;;0.85;0.52;;;;;;;2.48;100.00;98791.53;5076698;28;20040;-52
2021/12/10 06:55:24;;;;;;;1.02;0.43;;;;;;;2.55;100.00;98801.09;5075054;28;20390;-49
2021/12/10 06:57:50;;;;;;;1.58;0.52;;;;;;;2.46;100.00;98817.06;5085375;28;20138;-53
2021/12/10 07:00:20;;;;;;;1.70;0.08;;;;;;;2.48;100.00;98826.38;5085411;28;20039;-49
2021/12/10 07:02:46;;;;;;;2.22;0.08;;;;;;;2.37;100.00;98834.63;5086470;28;20035;-49
2021/12/10 07:05:13;;;;;;;1.50;0.13;;;;;;;2.37;100.00;98832.00;5084925;28;20504;-50
2021/12/10 07:07:38;;;;;;;10.25;0.73;;;;;;;2.35;100.00;98832.22;5087367;28;20092;-48
2021/12/10 07:10:07;;;;;;;1.17;0.10;;;;;;;2.27;100.00;98824.44;5084203;28;20028;-50
2021/12/10 07:12:38;;;;;;;0.57;0.10;;;;;;;2.17;100.00;98837.78;5075506;28;20370;-49
2021/12/10 07:15:08;;;;;;;5.25;1.30;;;;;;;2.18;100.00;98857.69;5077936;28;20128;-52
2021/12/10 07:17:34;;;;;;;6.05;0.73;;;;;;;2.18;100.00;98842.00;5081776;28;20058;-52
2021/12/10 07:19:59;;;;;;;2.75;0.82;;;;;;;2.20;100.00;98851.47;5065843;28;20032;-50
2021/12/10 07:22:24;;;;;;;2.33;0.73;;;;;;;2.19;100.00;98850.66;5078540;28;20071;-52
2021/12/10 07:24:50;;;;;;;4.15;0.20;;;;;;;2.25;100.00;98843.94;5084714;28;20473;-49
2021/12/10 07:27:15;;;;;;;2.42;0.20;;;;;;;2.24;100.00;98845.69;5086858;28;20081;-48
2021/12/10 07:29:41;;;;;;;3.40;0.10;;;;;;;2.11;100.00;98861.19;5076164;28;20040;-50
2021/12/10 07:32:08;;;;;;;1.25;0.05;;;;;;;2.06;100.00;98856.47;5064170;28;20027;-52
2021/12/10 07:34:33;;;;;;;1.45;0.85;;;;;;;1.96;100.00;98872.41;5080134;28;20107;-50
2021/12/10 07:36:59;;;;;;;8.05;0.32;;;;;;;2.09;100.00;98868.38;5084107;28;20111;-48
2021/12/10 07:39:24;;;;;;;0.15;0.15;;;;;;;2.16;100.00;98871.94;5085805;28;20112;-51
2021/12/10 07:41:50;;;;;;;6.55;1.38;;;;;;;2.12;100.00;98884.56;5083869;28;20028;-50
2021/12/10 07:44:15;;;;;;;2.28;0.40;;;;;;;2.10;100.00;98883.91;5083612;28;20024;-48
2021/12/10 07:46:41;;;;;;;1.60;0.00;;;;;;;2.07;100.00;98888.69;5083102;28;20092;-49
2021/12/10 07:49:14;;;;;;;0.95;0.20;;;;;;;2.05;100.00;98893.28;5083993;28;20500;-51
2021/12/10 07:51:41;;;;;;;3.63;0.20;;;;;;;2.13;100.00;98891.41;5079837;28;20031;-50
2021/12/10 07:54:06;;;;;;;3.80;0.82;;;;;;;2.08;100.00;98901.56;5081628;28;20516;-51
2021/12/10 07:56:32;;;;;;;0.32;0.32;;;;;;;2.02;100.00;98914.53;5082447;28;20127;-53
2021/12/10 07:58:59;;;;;;;0.60;0.20;;;;;;;2.01;100.00;98911.09;5083778;28;20059;-47
2021/12/10 08:01:27;;;;;;;8.68;0.32;;;;;;;1.99;100.00;98925.31;5085191;28;20390;-49
2021/12/10 08:03:56;;;;;;;5.82;0.40;;;;;;;1.96;100.00;98911.63;5084627;28;20039;-49
2021/12/10 08:06:23;;;;;;;3.85;0.47;;;;;;;1.85;100.00;98913.81;5081727;28;20575;-50
2021/12/10 08:08:49;;;;;;;1.20;0.10;;;;;;;1.85;100.00;98919.84;5082356;28;20683;-48
2021/12/10 08:11:15;;;;;;;3.80;0.17;;;;;;;1.88;100.00;98922.13;5081846;28;20020;-52
2021/12/10 08:13:41;;;;;;;3.70;0.45;;;;;;;1.89;100.00;98936.84;5081564;28;20097;-48
2021/12/10 08:16:07;;;;;;;5.63;0.20;;;;;;;1.94;100.00;98933.72;5078495;28;20028;-52
2021/12/10 08:18:33;;;;;;;0.88;0.05;;;;;;;1.77;100.00;98938.19;5079431;28;20132;-47
2021/12/10 08:20:59;;;;;;;1.55;0.10;;;;;;;1.75;100.00;98950.63;5080499;28;20029;-51
2021/12/10 08:23:25;;;;;;;6.78;0.57;;;;;;;1.77;100.00;98947.84;5082956;28;20039;-52
2021/12/10 08:25:51;;;;;;;0.88;0.20;;;;;;;1.77;100.00;98947.84;5081569;28;20024;-50
2021/12/10 08:28:18;;;;;;;5.25;0.25;;;;;;;1.85;100.00;98951.22;5080241;28;20035;-47
2021/12/10 08:30:44;;;;;;;6.75;0.45;;;;;;;1.83;100.00;98958.41;5081563;28;20051;-50
2021/12/10 08:33:13;;;;;;;2.38;0.22;;;;;;;1.88;100.00;98961.31;5082927;28;20494;-54
2021/12/10 08:35:44;;;;;;;5.60;0.10;;;;;;;1.86;100.00;98970.31;5062116;28;20146;-50
2021/12/10 08:38:10;;;;;;;3.53;0.22;;;;;;;1.87;100.00;98975.38;5084550;28;20032;-48
2021/12/10 08:40:46;;;;;;;8.77;0.45;;;;;;;1.71;100.00;98973.69;5088910;28;20429;-48
2021/12/10 08:43:11;;;;;;;0.73;0.50;;;;;;;1.71;100.00;98988.53;5077894;28;20334;-50
2021/12/10 08:45:39;;;;;;;3.35;0.05;;;;;;;1.81;100.00;99007.44;5088997;28;20435;-51
2021/12/10 08:48:05;;;;;;;4.90;0.20;;;;;;;1.91;100.00;99002.00;5089182;28;20039;-47
2021/12/10 08:50:32;;;;;;;1.58;0.95;;;;;;;1.93;100.00;99010.47;5089594;28;20093;-50
2021/12/10 08:53:04;;;;;;;2.00;0.32;;;;;;;1.95;100.00;99013.75;5088414;28;20451;-53
2021/12/10 08:55:32;;;;;;;4.78;0.20;;;;;;;2.09;100.00;99018.25;5066116;28;20059;-50
2021/12/10 08:57:57;;;;;;;1.40;0.40;;;;;;;2.11;100.00;99026.72;5083220;28;20047;-50
2021/12/10 09:00:24;;;;;;;0.88;0.88;;;;;;;2.08;100.00;99041.94;5087044;28;20629;-50
2021/12/10 09:02:51;;;;;;;1.02;0.25;;;;;;;2.09;100.00;99041.78;5088541;28;20044;-52
2021/12/10 09:05:17;;;;;;;1.90;0.13;;;;;;;2.21;100.00;99044.81;5089843;28;20035;-51
2021/12/10 09:07:44;;;;;;;1.60;0.17;;;;;;;2.31;100.00;99055.88;5087360;28;20032;-48
2021/12/10 09:10:12;;;;;;;1.67;0.57;;;;;;;2.50;100.00;99046.75;5082946;28;20142;-52
2021/12/10 09:12:38;;;;;;;0.55;0.05;;;;;;;2.65;100.00;99059.09;5080652;28;20040;-50
2021/12/10 09:15:07;;;;;;;0.75;0.20;;;;;;;2.64;100.00;99073.19;5084160;28;20020;-54
2021/12/10 09:17:34;;;;;;;6.55;0.20;;;;;;;2.70;100.00;99070.66;5086443;28;20059;-49
2021/12/10 09:20:05;;;;;;;4.68;0.20;;;;;;;2.82;100.00;99077.13;5088272;28;20035;-51
2021/12/10 09:22:31;;;;;;;1.38;0.43;;;;;;;2.84;100.00;99090.06;5088208;28;20384;-48
2021/12/10 09:24:57;;;;;;;2.17;0.98;;;;;;;2.92;100.00;99082.13;5075186;28;20066;-51
2021/12/10 09:27:24;;;;;;;4.32;0.50;;;;;;;3.08;100.00;99089.03;5087675;28;20035;-53
2021/12/10 09:29:52;;;;;;;3.67;0.20;;;;;;;3.11;100.00;99100.97;5088839;28;20097;-47
2021/12/10 09:32:24;;;;;;;5.05;0.38;;;;;;;3.08;100.00;99091.66;5087664;28;20112;-51
2021/12/10 09:34:50;;;;;;;6.53;0.50;;;;;;;3.06;100.00;99104.91;5088135;28;20059;-52
2021/12/10 09:37:18;;;;;;;0.77;0.10;;;;;;;3.12;100.00;99107.81;5087828;28;20082;-49
2021/12/10 09:39:44;;;;;;;1.75;1.65;;;;;;;3.16;100.00;99109.13;5091863;28;20043;-50
2021/12/10 09:42:10;;;;;;;3.72;0.90;;;;;;;3.27;100.00;99117.34;5079649;28;20507;-53
2021/12/10 09:44:36;;;;;;;2.78;1.08;;;;;;;3.42;100.00;99122.63;5089136;28;20032;-53
2021/12/10 09:47:04;;;;;;;4.38;0.35;;;;;;;3.50;100.00;99122.53;5087687;28;20071;-49
2021/12/10 09:49:30;;;;;;;5.38;0.50;;;;;;;3.39;100.00;99130.84;5090708;28;20059;-49
2021/12/10 09:52:01;;;;;;;0.65;0.43;;;;;;;3.35;100.00;99131.38;5084551;28;20389;-50
2021/12/10 09:54:29;;;;;;;5.85;0.90;;;;;;;3.34;100.00;99133.19;5070672;28;20495;-53
2021/12/10 09:57:17;;;;;;;2.45;0.22;;;;;;;3.34;100.00;99137.63;5082114;28;20078;-53
2021/12/10 09:59:44;;;;;;;0.50;0.10;;;;;;;3.28;100.00;99132.09;5080563;28;20036;-52
2021/12/10 10:02:10;;;;;;;3.08;1.00;;;;;;;3.27;100.00;99137.50;5078857;28;20112;-51
2021/12/10 10:04:38;;;;;;;3.22;0.43;;;;;;;3.32;100.00;99137.78;5088189;28;20028;-47
2021/12/10 10:07:14;;;;;;;2.75;0.15;;;;;;;3.42;100.00;99142.78;5087996;28;20123;-51
2021/12/10 10:09:42;;;;;;;5.25;0.32;;;;;;;3.44;100.00;99159.94;5087320;28;20036;-54
2021/12/10 10:12:14;;;;;;;3.38;0.43;;;;;;;3.50;100.00;99151.38;5078803;28;20036;-48
2021/12/10 10:14:41;;;;;;;0.13;0.10;;;;;;;3.56;100.00;99144.59;5086244;28;20024;-51
2021/12/10 10:17:10;;;;;;;1.23;0.40;;;;;;;3.58;100.00;99158.34;5084459;28;20107;-50
2021/12/10 10:19:36;;;;;;;1.73;0.93;;;;;;;3.61;100.00;99157.97;5086920;28;20417;-53
2021/12/10 10:22:05;;;;;;;1.35;0.63;;;;;;;3.61;100.00;99155.38;5087382;28;20036;-49
2021/12/10 10:24:32;;;;;;;13.13;0.30;;;;;;;3.65;100.00;99169.75;5086699;28;20042;-48
2021/12/10 10:27:09;;;;;;;2.78;0.10;;;;;;;3.71;100.00;99173.47;5087239;28;20123;-47
2021/12/10 10:29:40;;;;;;;3.13;0.80;;;;;;;3.75;100.00;99174.75;5080734;28;20031;-51
2021/12/10 10:32:12;;;;;;;3.85;0.35;;;;;;;3.83;100.00;99171.22;5077913;28;20052;-51
2021/12/10 10:34:44;;;;;;;1.88;0.13;;;;;;;3.89;100.00;99173.13;5085418;28;20032;-54
2021/12/10 10:37:11;;;;;;;3.90;0.90;;;;;;;3.92;100.00;99180.63;5096605;28;20028;-51
2021/12/10 10:39:38;;;;;;;1.95;0.13;;;;;;;4.01;100.00;99190.06;5088808;28;20064;-53
2021/12/10 10:42:11;;;;;;;3.78;0.80;;;;;;;4.03;100.00;99182.81;5082275;28;20028;-53
2021/12/10 10:44:36;;;;;;;5.40;0.10;;;;;;;4.08;100.00;99188.34;5085923;28;20020;-51
2021/12/10 10:47:03;;;;;;;6.40;0.43;;;;;;;4.19;100.00;99191.50;5085787;28;20047;-50
2021/12/10 10:49:46;;;;;;;4.30;0.20;;;;;;;4.26;100.00;99195.03;5082980;28;20044;-50
2021/12/10 10:52:29;;;;;;;9.18;1.48;;;;;;;4.31;100.00;99185.63;5086448;28;20028;-53
2021/12/10 10:55:17;;;;;;;8.55;0.55;;;;;;;4.41;100.00;99190.59;5080135;28;20047;-53
2021/12/10 10:57:58;;;;;;;0.63;0.15;;;;;;;4.46;100.00;99205.78;5079708;28;20024;-50
2021/12/10 11:00:29;;;;;;;1.88;0.30;;;;;;;4.54;100.00;99206.53;5078129;28;20371;-50
2021/12/10 11:03:01;;;;;;;1.75;0.20;;;;;;;4.53;100.00;99212.75;5085470;28;20225;-48
2021/12/10 11:05:27;;;;;;;6.40;0.52;;;;;;;4.61;100.00;99216.28;5082778;28;20032;-55
2021/12/10 11:07:56;;;;;;;3.67;0.10;;;;;;;4.63;100.00;99222.16;5080904;28;20082;-51
2021/12/10 11:10:34;;;;;;;4.20;0.43;;;;;;;4.65;100.00;99241.19;5084563;28;20401;-52
2021/12/10 11:13:15;;;;;;;1.13;0.10;;;;;;;4.77;100.00;99231.81;5086320;28;20429;-49
2021/12/10 11:16:03;;;;;;;4.13;0.40;;;;;;;4.89;100.00;99235.59;5082145;28;20036;-48
2021/12/10 11:18:50;;;;;;;0.25;0.10;;;;;;;4.86;100.00;99233.34;5081766;28;20039;-48
2021/12/10 11:21:31;;;;;;;1.27;0.50;;;;;;;4.91;100.00;99238.06;5084250;28;20020;-50
2021/12/10 11:24:13;;;;;;;3.67;0.55;;;;;;;4.96;100.00;99236.50;5082912;28;20388;-50
2021/12/10 11:27:12;;;;;;;1.10;0.70;;;;;;;4.82;100.00;99240.78;5076191;28;20064;-52
2021/12/10 11:29:55;;;;;;;1.73;0.20;;;;;;;4.88;100.00;99255.00;5058435;28;20044;-52
2021/12/10 11:32:23;;;;;;;4.65;0.28;;;;;;;4.92;100.00;99253.63;5083496;28;20078;-49
2021/12/10 11:34:54;;;;;;;3.03;0.05;;;;;;;4.99;100.00;99258.97;5084356;28;20040;-52
2021/12/10 11:37:44;;;;;;;2.72;0.20;;;;;;;5.05;100.00;99254.78;5077302;28;20551;-51
2021/12/10 11:40:42;;;;;;;0.90;0.43;;;;;;;5.07;100.00;99260.66;5079215;28;20036;-48
2021/12/10 11:48:30;;;;;;;4.07;0.68;;;;;;;5.17;100.00;99269.06;5085572;28;20554;-52
2021/12/10 11:51:08;;;;;;;0.82;0.52;;;;;;;5.11;100.00;99260.13;5085576;28;20170;-50
2021/12/10 11:53:37;;;;;;;1.75;0.40;;;;;;;5.12;100.00;99255.69;5086076;28;20434;-48
2021/12/10 11:56:09;;;;;;;1.15;0.13;;;;;;;5.16;100.00;99277.94;5085794;28;20032;-51
2021/12/10 11:58:35;;;;;;;2.00;0.30;;;;;;;5.22;100.00;99271.97;5085431;28;20039;-55